sensor_id;sensor_type;location;lat;lon;timestamp;P1;durP1;ratioP1;P2;durP2;ratioP2
53411;SDS011;39307;52.870;13.660;2024-03-02T00:01:12;30.25;;;26.95;;
53411;SDS011;39307;52.870;13.660;2024-03-02T00:03:41;31.30;;;27.70;;
53411;SDS011;39307;52.870;13.660;2024-03-02T00:06:08;29.30;;;26.20;;
53411;SDS011;39307;52.870;13.660;2024-03-02T00:08:36;31.67;;;27.95;;
53411;SDS011;39307;52.870;13.660;2024-03-02T00:11:03;31.52;;;28.08;;
53411;SDS011;39307;52.870;13.660;2024-03-02T00:13:30;31.50;;;28.10;;
53411;SDS011;39307;52.870;13.660;2024-03-02T00:15:57;30.67;;;27.38;;
53411;SDS011;39307;52.870;13.660;2024-03-02T00:18:31;30.60;;;27.37;;
53411;SDS011;39307;52.870;13.660;2024-03-02T00:21:02;33.45;;;28.50;;
53411;SDS011;39307;52.870;13.660;2024-03-02T00:23:33;31.02;;;27.73;;
53411;SDS011;39307;52.870;13.660;2024-03-02T00:26:00;32.40;;;28.90;;
53411;SDS011;39307;52.870;13.660;2024-03-02T00:31:06;30.88;;;27.25;;
53411;SDS011;39307;52.870;13.660;2024-03-02T00:33:39;31.27;;;27.85;;
53411;SDS011;39307;52.870;13.660;2024-03-02T00:36:17;32.85;;;29.35;;
53411;SDS011;39307;52.870;13.660;2024-03-02T00:38:52;31.30;;;28.00;;
53411;SDS011;39307;52.870;13.660;2024-03-02T00:41:32;30.97;;;27.43;;
53411;SDS011;39307;52.870;13.660;2024-03-02T00:44:00;32.58;;;29.05;;
53411;SDS011;39307;52.870;13.660;2024-03-02T00:46:30;30.83;;;27.58;;
53411;SDS011;39307;52.870;13.660;2024-03-02T00:49:03;33.92;;;30.27;;
53411;SDS011;39307;52.870;13.660;2024-03-02T00:51:38;33.10;;;29.50;;
53411;SDS011;39307;52.870;13.660;2024-03-02T00:54:07;32.35;;;28.85;;
53411;SDS011;39307;52.870;13.660;2024-03-02T00:56:35;31.55;;;28.02;;
53411;SDS011;39307;52.870;13.660;2024-03-02T00:59:03;33.10;;;29.20;;
53411;SDS011;39307;52.870;13.660;2024-03-02T01:01:30;34.20;;;30.50;;
53411;SDS011;39307;52.870;13.660;2024-03-02T01:03:56;34.92;;;30.73;;
53411;SDS011;39307;52.870;13.660;2024-03-02T01:06:23;32.30;;;28.83;;
53411;SDS011;39307;52.870;13.660;2024-03-02T01:08:50;33.92;;;30.25;;
53411;SDS011;39307;52.870;13.660;2024-03-02T01:11:17;33.08;;;29.58;;
53411;SDS011;39307;52.870;13.660;2024-03-02T01:13:44;34.27;;;30.57;;
53411;SDS011;39307;52.870;13.660;2024-03-02T01:16:11;33.53;;;29.97;;
53411;SDS011;39307;52.870;13.660;2024-03-02T01:18:38;33.33;;;29.73;;
53411;SDS011;39307;52.870;13.660;2024-03-02T01:21:05;33.88;;;30.13;;
53411;SDS011;39307;52.870;13.660;2024-03-02T01:23:32;32.28;;;28.65;;
53411;SDS011;39307;52.870;13.660;2024-03-02T01:25:59;33.92;;;30.33;;
53411;SDS011;39307;52.870;13.660;2024-03-02T01:28:26;34.53;;;30.40;;
53411;SDS011;39307;52.870;13.660;2024-03-02T01:30:53;30.17;;;26.73;;
53411;SDS011;39307;52.870;13.660;2024-03-02T01:33:20;32.58;;;29.00;;
53411;SDS011;39307;52.870;13.660;2024-03-02T01:35:47;32.45;;;28.95;;
53411;SDS011;39307;52.870;13.660;2024-03-02T01:38:13;33.30;;;29.70;;
53411;SDS011;39307;52.870;13.660;2024-03-02T01:40:40;32.77;;;29.17;;
53411;SDS011;39307;52.870;13.660;2024-03-02T01:43:08;30.95;;;27.60;;
53411;SDS011;39307;52.870;13.660;2024-03-02T01:45:35;32.58;;;29.08;;
53411;SDS011;39307;52.870;13.660;2024-03-02T01:48:02;30.73;;;27.38;;
53411;SDS011;39307;52.870;13.660;2024-03-02T01:50:31;30.92;;;27.67;;
53411;SDS011;39307;52.870;13.660;2024-03-02T01:53:00;30.95;;;27.55;;
53411;SDS011;39307;52.870;13.660;2024-03-02T01:55:27;30.53;;;27.30;;
53411;SDS011;39307;52.870;13.660;2024-03-02T01:57:54;29.90;;;26.80;;
53411;SDS011;39307;52.870;13.660;2024-03-02T02:00:21;32.88;;;29.10;;
53411;SDS011;39307;52.870;13.660;2024-03-02T02:02:48;31.10;;;27.55;;
53411;SDS011;39307;52.870;13.660;2024-03-02T02:05:15;30.17;;;26.98;;
53411;SDS011;39307;52.870;13.660;2024-03-02T02:07:42;30.55;;;26.98;;
53411;SDS011;39307;52.870;13.660;2024-03-02T02:10:10;30.90;;;27.60;;
53411;SDS011;39307;52.870;13.660;2024-03-02T02:12:37;32.33;;;28.83;;
53411;SDS011;39307;52.870;13.660;2024-03-02T02:15:04;31.70;;;28.40;;
53411;SDS011;39307;52.870;13.660;2024-03-02T02:17:53;30.08;;;26.83;;
53411;SDS011;39307;52.870;13.660;2024-03-02T02:20:21;30.80;;;27.50;;
53411;SDS011;39307;52.870;13.660;2024-03-02T02:22:55;32.30;;;28.23;;
53411;SDS011;39307;52.870;13.660;2024-03-02T02:25:29;32.88;;;29.27;;
53411;SDS011;39307;52.870;13.660;2024-03-02T02:27:56;31.55;;;28.10;;
53411;SDS011;39307;52.870;13.660;2024-03-02T02:30:27;30.27;;;27.08;;
53411;SDS011;39307;52.870;13.660;2024-03-02T02:32:56;31.70;;;28.25;;
53411;SDS011;39307;52.870;13.660;2024-03-02T02:35:23;29.90;;;26.60;;
53411;SDS011;39307;52.870;13.660;2024-03-02T02:37:50;31.42;;;28.00;;
53411;SDS011;39307;52.870;13.660;2024-03-02T02:40:19;31.42;;;28.00;;
53411;SDS011;39307;52.870;13.660;2024-03-02T02:42:47;28.65;;;25.55;;
53411;SDS011;39307;52.870;13.660;2024-03-02T02:45:14;30.15;;;26.95;;
53411;SDS011;39307;52.870;13.660;2024-03-02T02:47:41;31.38;;;28.05;;
53411;SDS011;39307;52.870;13.660;2024-03-02T02:50:09;31.42;;;28.02;;
53411;SDS011;39307;52.870;13.660;2024-03-02T02:52:38;31.67;;;28.27;;
53411;SDS011;39307;52.870;13.660;2024-03-02T02:55:07;30.38;;;27.08;;
53411;SDS011;39307;52.870;13.660;2024-03-02T02:57:37;30.20;;;27.00;;
53411;SDS011;39307;52.870;13.660;2024-03-02T03:00:08;31.90;;;28.48;;
53411;SDS011;39307;52.870;13.660;2024-03-02T03:02:37;30.73;;;27.43;;
53411;SDS011;39307;52.870;13.660;2024-03-02T03:05:05;31.27;;;27.90;;
53411;SDS011;39307;52.870;13.660;2024-03-02T03:07:33;29.63;;;26.40;;
53411;SDS011;39307;52.870;13.660;2024-03-02T03:10:00;31.63;;;28.23;;
53411;SDS011;39307;52.870;13.660;2024-03-02T03:12:27;31.92;;;28.52;;
53411;SDS011;39307;52.870;13.660;2024-03-02T03:14:54;30.08;;;26.83;;
53411;SDS011;39307;52.870;13.660;2024-03-02T03:17:21;30.98;;;27.65;;
53411;SDS011;39307;52.870;13.660;2024-03-02T03:19:49;32.22;;;28.45;;
53411;SDS011;39307;52.870;13.660;2024-03-02T03:22:16;30.67;;;27.38;;
53411;SDS011;39307;52.870;13.660;2024-03-02T03:24:43;31.02;;;27.73;;
53411;SDS011;39307;52.870;13.660;2024-03-02T03:27:11;30.42;;;27.17;;
53411;SDS011;39307;52.870;13.660;2024-03-02T03:29:39;31.42;;;27.85;;
53411;SDS011;39307;52.870;13.660;2024-03-02T03:32:06;30.13;;;26.92;;
53411;SDS011;39307;52.870;13.660;2024-03-02T03:34:34;32.15;;;28.75;;
53411;SDS011;39307;52.870;13.660;2024-03-02T03:37:01;31.30;;;27.47;;
53411;SDS011;39307;52.870;13.660;2024-03-02T03:39:28;29.90;;;26.80;;
53411;SDS011;39307;52.870;13.660;2024-03-02T03:41:55;30.65;;;27.23;;
53411;SDS011;39307;52.870;13.660;2024-03-02T03:44:23;31.40;;;28.15;;
53411;SDS011;39307;52.870;13.660;2024-03-02T03:46:50;31.15;;;27.85;;
53411;SDS011;39307;52.870;13.660;2024-03-02T03:49:17;30.38;;;27.17;;
53411;SDS011;39307;52.870;13.660;2024-03-02T03:51:44;28.27;;;25.38;;
53411;SDS011;39307;52.870;13.660;2024-03-02T03:54:10;28.40;;;25.40;;
53411;SDS011;39307;52.870;13.660;2024-03-02T03:56:37;31.13;;;27.83;;
53411;SDS011;39307;52.870;13.660;2024-03-02T03:59:04;32.05;;;28.55;;
53411;SDS011;39307;52.870;13.660;2024-03-02T04:01:31;31.92;;;28.52;;
53411;SDS011;39307;52.870;13.660;2024-03-02T04:03:58;30.35;;;27.15;;
53411;SDS011;39307;52.870;13.660;2024-03-02T04:06:24;31.75;;;28.45;;
53411;SDS011;39307;52.870;13.660;2024-03-02T04:08:51;31.10;;;27.80;;
53411;SDS011;39307;52.870;13.660;2024-03-02T04:11:18;30.92;;;27.67;;
53411;SDS011;39307;52.870;13.660;2024-03-02T04:13:45;31.38;;;28.08;;
53411;SDS011;39307;52.870;13.660;2024-03-02T04:16:11;30.80;;;27.50;;
53411;SDS011;39307;52.870;13.660;2024-03-02T04:18:38;29.40;;;26.20;;
53411;SDS011;39307;52.870;13.660;2024-03-02T04:21:05;31.42;;;28.08;;
53411;SDS011;39307;52.870;13.660;2024-03-02T04:23:32;29.83;;;26.73;;
53411;SDS011;39307;52.870;13.660;2024-03-02T04:25:59;32.53;;;28.93;;
53411;SDS011;39307;52.870;13.660;2024-03-02T04:28:26;31.95;;;28.40;;
53411;SDS011;39307;52.870;13.660;2024-03-02T04:30:52;30.58;;;27.40;;
53411;SDS011;39307;52.870;13.660;2024-03-02T04:33:19;29.87;;;26.73;;
53411;SDS011;39307;52.870;13.660;2024-03-02T04:35:46;29.70;;;26.50;;
53411;SDS011;39307;52.870;13.660;2024-03-02T04:38:13;29.42;;;26.33;;
53411;SDS011;39307;52.870;13.660;2024-03-02T04:40:40;30.77;;;27.48;;
53411;SDS011;39307;52.870;13.660;2024-03-02T04:43:07;30.33;;;27.10;;
53411;SDS011;39307;52.870;13.660;2024-03-02T04:45:34;30.77;;;27.58;;
53411;SDS011;39307;52.870;13.660;2024-03-02T04:48:03;29.65;;;26.45;;
53411;SDS011;39307;52.870;13.660;2024-03-02T04:50:30;32.05;;;28.63;;
53411;SDS011;39307;52.870;13.660;2024-03-02T04:52:57;33.30;;;29.80;;
53411;SDS011;39307;52.870;13.660;2024-03-02T04:55:24;30.40;;;27.20;;
53411;SDS011;39307;52.870;13.660;2024-03-02T04:57:51;30.40;;;27.23;;
53411;SDS011;39307;52.870;13.660;2024-03-02T05:00:18;30.00;;;26.80;;
53411;SDS011;39307;52.870;13.660;2024-03-02T05:02:46;28.73;;;25.83;;
53411;SDS011;39307;52.870;13.660;2024-03-02T05:05:13;30.77;;;27.58;;
53411;SDS011;39307;52.870;13.660;2024-03-02T05:07:40;29.92;;;26.80;;
53411;SDS011;39307;52.870;13.660;2024-03-02T05:10:07;30.50;;;27.25;;
53411;SDS011;39307;52.870;13.660;2024-03-02T05:12:34;30.40;;;27.17;;
53411;SDS011;39307;52.870;13.660;2024-03-02T05:15:01;29.45;;;26.35;;
53411;SDS011;39307;52.870;13.660;2024-03-02T05:17:28;29.95;;;26.85;;
53411;SDS011;39307;52.870;13.660;2024-03-02T05:19:56;29.85;;;26.65;;
53411;SDS011;39307;52.870;13.660;2024-03-02T05:22:23;31.38;;;28.02;;
53411;SDS011;39307;52.870;13.660;2024-03-02T05:24:50;30.60;;;27.30;;
53411;SDS011;39307;52.870;13.660;2024-03-02T05:27:16;29.60;;;26.50;;
53411;SDS011;39307;52.870;13.660;2024-03-02T05:29:43;28.92;;;25.92;;
53411;SDS011;39307;52.870;13.660;2024-03-02T05:32:10;29.73;;;26.63;;
53411;SDS011;39307;52.870;13.660;2024-03-02T05:34:37;29.77;;;26.58;;
53411;SDS011;39307;52.870;13.660;2024-03-02T05:37:04;29.83;;;26.70;;
53411;SDS011;39307;52.870;13.660;2024-03-02T05:39:31;27.08;;;24.17;;
53411;SDS011;39307;52.870;13.660;2024-03-02T05:41:57;29.73;;;26.60;;
53411;SDS011;39307;52.870;13.660;2024-03-02T05:44:24;29.92;;;26.73;;
53411;SDS011;39307;52.870;13.660;2024-03-02T05:46:51;29.20;;;26.05;;
53411;SDS011;39307;52.870;13.660;2024-03-02T05:49:18;29.88;;;26.77;;
53411;SDS011;39307;52.870;13.660;2024-03-02T05:51:45;30.80;;;27.58;;
53411;SDS011;39307;52.870;13.660;2024-03-02T05:54:11;29.83;;;26.63;;
53411;SDS011;39307;52.870;13.660;2024-03-02T05:56:38;29.20;;;26.10;;
53411;SDS011;39307;52.870;13.660;2024-03-02T05:59:05;30.42;;;27.30;;
53411;SDS011;39307;52.870;13.660;2024-03-02T06:01:32;29.75;;;26.33;;
53411;SDS011;39307;52.870;13.660;2024-03-02T06:03:59;30.65;;;27.42;;
53411;SDS011;39307;52.870;13.660;2024-03-02T06:06:26;29.23;;;26.13;;
53411;SDS011;39307;52.870;13.660;2024-03-02T06:08:53;28.37;;;25.37;;
53411;SDS011;39307;52.870;13.660;2024-03-02T06:11:20;29.05;;;25.95;;
53411;SDS011;39307;52.870;13.660;2024-03-02T06:13:47;27.60;;;24.63;;
53411;SDS011;39307;52.870;13.660;2024-03-02T06:16:14;27.90;;;25.05;;
53411;SDS011;39307;52.870;13.660;2024-03-02T06:18:41;28.40;;;25.42;;
53411;SDS011;39307;52.870;13.660;2024-03-02T06:21:08;28.47;;;25.57;;
53411;SDS011;39307;52.870;13.660;2024-03-02T06:23:35;27.30;;;24.40;;
53411;SDS011;39307;52.870;13.660;2024-03-02T06:26:02;27.98;;;24.98;;
53411;SDS011;39307;52.870;13.660;2024-03-02T06:28:29;27.60;;;24.70;;
53411;SDS011;39307;52.870;13.660;2024-03-02T06:30:56;27.45;;;24.63;;
53411;SDS011;39307;52.870;13.660;2024-03-02T06:33:22;28.10;;;25.20;;
53411;SDS011;39307;52.870;13.660;2024-03-02T06:35:49;28.00;;;25.10;;
53411;SDS011;39307;52.870;13.660;2024-03-02T06:38:16;28.63;;;25.63;;
53411;SDS011;39307;52.870;13.660;2024-03-02T06:40:43;27.43;;;24.63;;
53411;SDS011;39307;52.870;13.660;2024-03-02T06:43:10;27.88;;;24.98;;
53411;SDS011;39307;52.870;13.660;2024-03-02T06:45:37;26.80;;;24.00;;
53411;SDS011;39307;52.870;13.660;2024-03-02T06:48:04;26.60;;;23.80;;
53411;SDS011;39307;52.870;13.660;2024-03-02T06:50:32;27.13;;;24.33;;
53411;SDS011;39307;52.870;13.660;2024-03-02T06:52:59;27.52;;;24.63;;
53411;SDS011;39307;52.870;13.660;2024-03-02T06:55:25;26.43;;;23.63;;
53411;SDS011;39307;52.870;13.660;2024-03-02T06:57:52;26.33;;;23.58;;
53411;SDS011;39307;52.870;13.660;2024-03-02T07:00:19;26.98;;;24.17;;
53411;SDS011;39307;52.870;13.660;2024-03-02T07:02:46;27.17;;;24.45;;
53411;SDS011;39307;52.870;13.660;2024-03-02T07:05:13;27.77;;;24.88;;
53411;SDS011;39307;52.870;13.660;2024-03-02T07:07:39;26.70;;;23.88;;
53411;SDS011;39307;52.870;13.660;2024-03-02T07:10:06;27.17;;;24.38;;
53411;SDS011;39307;52.870;13.660;2024-03-02T07:12:33;26.83;;;24.02;;
53411;SDS011;39307;52.870;13.660;2024-03-02T07:15:00;26.60;;;23.80;;
53411;SDS011;39307;52.870;13.660;2024-03-02T07:17:28;26.33;;;23.63;;
53411;SDS011;39307;52.870;13.660;2024-03-02T07:19:59;25.55;;;22.95;;
53411;SDS011;39307;52.870;13.660;2024-03-02T07:22:26;26.27;;;23.48;;
53411;SDS011;39307;52.870;13.660;2024-03-02T07:24:52;25.80;;;23.10;;
53411;SDS011;39307;52.870;13.660;2024-03-02T07:27:19;26.77;;;24.05;;
53411;SDS011;39307;52.870;13.660;2024-03-02T07:29:46;25.20;;;22.58;;
53411;SDS011;39307;52.870;13.660;2024-03-02T07:32:13;26.30;;;23.60;;
53411;SDS011;39307;52.870;13.660;2024-03-02T07:34:40;26.42;;;23.73;;
53411;SDS011;39307;52.870;13.660;2024-03-02T07:37:07;25.63;;;23.02;;
53411;SDS011;39307;52.870;13.660;2024-03-02T07:39:34;25.33;;;22.70;;
53411;SDS011;39307;52.870;13.660;2024-03-02T07:42:01;25.77;;;23.15;;
53411;SDS011;39307;52.870;13.660;2024-03-02T07:44:28;24.80;;;22.30;;
53411;SDS011;39307;52.870;13.660;2024-03-02T07:46:54;25.95;;;23.25;;
53411;SDS011;39307;52.870;13.660;2024-03-02T07:49:21;25.63;;;23.02;;
53411;SDS011;39307;52.870;13.660;2024-03-02T07:51:48;24.85;;;22.25;;
53411;SDS011;39307;52.870;13.660;2024-03-02T07:54:15;24.90;;;22.40;;
53411;SDS011;39307;52.870;13.660;2024-03-02T07:56:42;24.43;;;21.83;;
53411;SDS011;39307;52.870;13.660;2024-03-02T07:59:09;24.88;;;22.33;;
53411;SDS011;39307;52.870;13.660;2024-03-02T08:01:36;24.73;;;22.23;;
53411;SDS011;39307;52.870;13.660;2024-03-02T08:04:03;23.73;;;21.33;;
53411;SDS011;39307;52.870;13.660;2024-03-02T08:06:30;24.40;;;21.90;;
53411;SDS011;39307;52.870;13.660;2024-03-02T08:08:57;24.00;;;21.52;;
53411;SDS011;39307;52.870;13.660;2024-03-02T08:11:25;24.10;;;21.60;;
53411;SDS011;39307;52.870;13.660;2024-03-02T08:13:52;24.63;;;22.02;;
53411;SDS011;39307;52.870;13.660;2024-03-02T08:16:18;24.20;;;21.73;;
53411;SDS011;39307;52.870;13.660;2024-03-02T08:18:46;24.15;;;21.55;;
53411;SDS011;39307;52.870;13.660;2024-03-02T08:21:15;23.17;;;20.77;;
53411;SDS011;39307;52.870;13.660;2024-03-02T08:23:43;23.00;;;20.55;;
53411;SDS011;39307;52.870;13.660;2024-03-02T08:26:10;24.42;;;21.92;;
53411;SDS011;39307;52.870;13.660;2024-03-02T08:28:37;22.75;;;20.38;;
53411;SDS011;39307;52.870;13.660;2024-03-02T08:31:04;22.93;;;20.63;;
53411;SDS011;39307;52.870;13.660;2024-03-02T08:33:32;22.90;;;20.60;;
53411;SDS011;39307;52.870;13.660;2024-03-02T08:35:59;22.90;;;20.60;;
53411;SDS011;39307;52.870;13.660;2024-03-02T08:38:26;22.73;;;20.42;;
53411;SDS011;39307;52.870;13.660;2024-03-02T08:40:53;23.90;;;21.40;;
53411;SDS011;39307;52.870;13.660;2024-03-02T08:43:20;23.13;;;20.73;;
53411;SDS011;39307;52.870;13.660;2024-03-02T08:45:47;22.63;;;20.33;;
53411;SDS011;39307;52.870;13.660;2024-03-02T08:48:14;22.80;;;20.42;;
53411;SDS011;39307;52.870;13.660;2024-03-02T08:50:41;23.25;;;20.83;;
53411;SDS011;39307;52.870;13.660;2024-03-02T08:53:08;22.42;;;20.23;;
53411;SDS011;39307;52.870;13.660;2024-03-02T08:55:35;22.67;;;20.38;;
53411;SDS011;39307;52.870;13.660;2024-03-02T08:58:02;22.60;;;20.27;;
53411;SDS011;39307;52.870;13.660;2024-03-02T09:00:29;22.48;;;20.17;;
53411;SDS011;39307;52.870;13.660;2024-03-02T09:02:56;21.88;;;19.58;;
53411;SDS011;39307;52.870;13.660;2024-03-02T09:05:23;21.88;;;19.67;;
53411;SDS011;39307;52.870;13.660;2024-03-02T09:07:49;21.70;;;19.50;;
53411;SDS011;39307;52.870;13.660;2024-03-02T09:10:16;22.10;;;19.80;;
53411;SDS011;39307;52.870;13.660;2024-03-02T09:12:43;21.67;;;19.38;;
53411;SDS011;39307;52.870;13.660;2024-03-02T09:15:10;22.25;;;20.02;;
53411;SDS011;39307;52.870;13.660;2024-03-02T09:17:37;21.42;;;19.23;;
53411;SDS011;39307;52.870;13.660;2024-03-02T09:20:05;21.85;;;19.55;;
53411;SDS011;39307;52.870;13.660;2024-03-02T09:22:32;21.35;;;19.15;;
53411;SDS011;39307;52.870;13.660;2024-03-02T09:24:59;21.40;;;19.20;;
53411;SDS011;39307;52.870;13.660;2024-03-02T09:27:26;22.10;;;19.90;;
53411;SDS011;39307;52.870;13.660;2024-03-02T09:29:52;20.90;;;18.83;;
53411;SDS011;39307;52.870;13.660;2024-03-02T09:32:19;21.20;;;19.05;;
53411;SDS011;39307;52.870;13.660;2024-03-02T09:34:46;21.03;;;18.83;;
53411;SDS011;39307;52.870;13.660;2024-03-02T09:37:13;20.65;;;18.55;;
53411;SDS011;39307;52.870;13.660;2024-03-02T09:39:40;20.73;;;18.63;;
53411;SDS011;39307;52.870;13.660;2024-03-02T09:42:10;21.55;;;19.25;;
53411;SDS011;39307;52.870;13.660;2024-03-02T09:44:38;20.90;;;18.80;;
53411;SDS011;39307;52.870;13.660;2024-03-02T09:47:06;20.52;;;18.42;;
53411;SDS011;39307;52.870;13.660;2024-03-02T09:49:33;20.35;;;18.27;;
53411;SDS011;39307;52.870;13.660;2024-03-02T09:52:01;21.02;;;18.92;;
53411;SDS011;39307;52.870;13.660;2024-03-02T09:54:30;20.30;;;18.20;;
53411;SDS011;39307;52.870;13.660;2024-03-02T09:56:57;20.25;;;18.15;;
53411;SDS011;39307;52.870;13.660;2024-03-02T09:59:24;19.48;;;17.48;;
53411;SDS011;39307;52.870;13.660;2024-03-02T10:01:57;20.33;;;18.20;;
53411;SDS011;39307;52.870;13.660;2024-03-02T10:04:26;20.30;;;18.30;;
53411;SDS011;39307;52.870;13.660;2024-03-02T10:09:45;19.03;;;17.07;;
53411;SDS011;39307;52.870;13.660;2024-03-02T10:12:14;19.33;;;17.33;;
53411;SDS011;39307;52.870;13.660;2024-03-02T10:14:43;19.80;;;17.80;;
53411;SDS011;39307;52.870;13.660;2024-03-02T10:17:11;19.98;;;17.98;;
53411;SDS011;39307;52.870;13.660;2024-03-02T10:19:39;19.38;;;17.48;;
53411;SDS011;39307;52.870;13.660;2024-03-02T10:22:09;18.98;;;17.08;;
53411;SDS011;39307;52.870;13.660;2024-03-02T10:27:09;19.50;;;17.50;;
53411;SDS011;39307;52.870;13.660;2024-03-02T10:29:52;19.90;;;17.90;;
53411;SDS011;39307;52.870;13.660;2024-03-02T10:32:20;20.10;;;18.10;;
53411;SDS011;39307;52.870;13.660;2024-03-02T10:34:49;18.87;;;16.97;;
53411;SDS011;39307;52.870;13.660;2024-03-02T10:37:16;18.75;;;16.83;;
53411;SDS011;39307;52.870;13.660;2024-03-02T10:39:45;19.10;;;17.10;;
53411;SDS011;39307;52.870;13.660;2024-03-02T10:42:13;18.85;;;16.85;;
53411;SDS011;39307;52.870;13.660;2024-03-02T10:44:41;18.92;;;17.02;;
53411;SDS011;39307;52.870;13.660;2024-03-02T10:47:08;18.58;;;16.67;;
53411;SDS011;39307;52.870;13.660;2024-03-02T10:49:38;18.02;;;16.23;;
53411;SDS011;39307;52.870;13.660;2024-03-02T10:52:09;19.02;;;17.13;;
53411;SDS011;39307;52.870;13.660;2024-03-02T10:54:36;18.65;;;16.75;;
53411;SDS011;39307;52.870;13.660;2024-03-02T10:57:04;17.80;;;16.02;;
53411;SDS011;39307;52.870;13.660;2024-03-02T10:59:35;18.80;;;16.90;;
53411;SDS011;39307;52.870;13.660;2024-03-02T11:02:03;18.80;;;16.90;;
53411;SDS011;39307;52.870;13.660;2024-03-02T11:04:30;19.13;;;17.23;;
53411;SDS011;39307;52.870;13.660;2024-03-02T11:09:34;18.65;;;16.75;;
53411;SDS011;39307;52.870;13.660;2024-03-02T11:12:31;18.58;;;16.67;;
53411;SDS011;39307;52.870;13.660;2024-03-02T11:15:14;18.10;;;16.30;;
53411;SDS011;39307;52.870;13.660;2024-03-02T11:17:44;18.45;;;16.55;;
53411;SDS011;39307;52.870;13.660;2024-03-02T11:20:12;18.83;;;16.83;;
53411;SDS011;39307;52.870;13.660;2024-03-02T11:22:40;18.05;;;16.15;;
53411;SDS011;39307;52.870;13.660;2024-03-02T11:25:18;17.95;;;16.15;;
53411;SDS011;39307;52.870;13.660;2024-03-02T11:33:02;18.40;;;16.50;;
53411;SDS011;39307;52.870;13.660;2024-03-02T11:35:30;18.80;;;16.90;;
53411;SDS011;39307;52.870;13.660;2024-03-02T11:37:57;18.35;;;16.45;;
53411;SDS011;39307;52.870;13.660;2024-03-02T11:40:27;17.85;;;16.05;;
53411;SDS011;39307;52.870;13.660;2024-03-02T11:42:55;18.58;;;16.67;;
53411;SDS011;39307;52.870;13.660;2024-03-02T11:45:25;18.42;;;16.58;;
53411;SDS011;39307;52.870;13.660;2024-03-02T11:47:57;17.65;;;15.95;;
53411;SDS011;39307;52.870;13.660;2024-03-02T11:50:33;18.65;;;16.85;;
53411;SDS011;39307;52.870;13.660;2024-03-02T11:53:08;18.02;;;16.23;;
53411;SDS011;39307;52.870;13.660;2024-03-02T11:55:35;18.60;;;16.70;;
53411;SDS011;39307;52.870;13.660;2024-03-02T11:58:03;18.27;;;16.37;;
53411;SDS011;39307;52.870;13.660;2024-03-02T12:00:31;17.60;;;15.80;;
53411;SDS011;39307;52.870;13.660;2024-03-02T12:03:01;18.33;;;16.50;;
53411;SDS011;39307;52.870;13.660;2024-03-02T12:05:33;17.98;;;16.10;;
53411;SDS011;39307;52.870;13.660;2024-03-02T12:08:04;17.58;;;15.77;;
53411;SDS011;39307;52.870;13.660;2024-03-02T12:10:33;17.88;;;16.08;;
53411;SDS011;39307;52.870;13.660;2024-03-02T12:13:03;16.80;;;15.10;;
53411;SDS011;39307;52.870;13.660;2024-03-02T12:15:34;18.02;;;16.23;;
53411;SDS011;39307;52.870;13.660;2024-03-02T12:18:04;17.83;;;16.02;;
53411;SDS011;39307;52.870;13.660;2024-03-02T12:20:32;17.57;;;15.80;;
53411;SDS011;39307;52.870;13.660;2024-03-02T12:23:00;17.30;;;15.57;;
53411;SDS011;39307;52.870;13.660;2024-03-02T12:25:29;17.42;;;15.63;;
53411;SDS011;39307;52.870;13.660;2024-03-02T12:27:58;17.48;;;15.68;;
53411;SDS011;39307;52.870;13.660;2024-03-02T12:30:26;17.30;;;15.52;;
53411;SDS011;39307;52.870;13.660;2024-03-02T12:32:56;17.20;;;15.48;;
53411;SDS011;39307;52.870;13.660;2024-03-02T12:35:24;16.85;;;15.15;;
53411;SDS011;39307;52.870;13.660;2024-03-02T12:37:52;17.33;;;15.60;;
53411;SDS011;39307;52.870;13.660;2024-03-02T12:40:20;17.33;;;15.55;;
53411;SDS011;39307;52.870;13.660;2024-03-02T12:42:48;17.63;;;15.82;;
53411;SDS011;39307;52.870;13.660;2024-03-02T12:45:16;17.70;;;15.90;;
53411;SDS011;39307;52.870;13.660;2024-03-02T12:47:43;17.23;;;15.50;;
53411;SDS011;39307;52.870;13.660;2024-03-02T12:50:11;17.05;;;15.35;;
53411;SDS011;39307;52.870;13.660;2024-03-02T12:52:38;17.48;;;15.68;;
53411;SDS011;39307;52.870;13.660;2024-03-02T12:55:05;17.45;;;15.65;;
53411;SDS011;39307;52.870;13.660;2024-03-02T12:57:33;16.65;;;14.95;;
53411;SDS011;39307;52.870;13.660;2024-03-02T13:00:03;17.30;;;15.60;;
53411;SDS011;39307;52.870;13.660;2024-03-02T13:02:31;16.85;;;15.15;;
53411;SDS011;39307;52.870;13.660;2024-03-02T13:04:58;16.98;;;15.27;;
53411;SDS011;39307;52.870;13.660;2024-03-02T13:07:25;16.60;;;14.90;;
53411;SDS011;39307;52.870;13.660;2024-03-02T13:09:53;16.65;;;14.95;;
53411;SDS011;39307;52.870;13.660;2024-03-02T13:12:21;15.93;;;14.32;;
53411;SDS011;39307;52.870;13.660;2024-03-02T13:14:52;16.38;;;14.68;;
53411;SDS011;39307;52.870;13.660;2024-03-02T13:17:20;16.80;;;15.07;;
53411;SDS011;39307;52.870;13.660;2024-03-02T13:19:53;15.98;;;14.32;;
53411;SDS011;39307;52.870;13.660;2024-03-02T13:22:25;15.90;;;14.30;;
53411;SDS011;39307;52.870;13.660;2024-03-02T13:24:52;17.02;;;15.32;;
53411;SDS011;39307;52.870;13.660;2024-03-02T13:27:20;15.85;;;14.25;;
53411;SDS011;39307;52.870;13.660;2024-03-02T13:29:47;15.90;;;14.20;;
53411;SDS011;39307;52.870;13.660;2024-03-02T13:32:14;16.38;;;14.75;;
53411;SDS011;39307;52.870;13.660;2024-03-02T13:34:42;16.70;;;15.00;;
53411;SDS011;39307;52.870;13.660;2024-03-02T13:37:09;16.07;;;14.37;;
53411;SDS011;39307;52.870;13.660;2024-03-02T13:39:36;16.23;;;14.60;;
53411;SDS011;39307;52.870;13.660;2024-03-02T13:42:03;16.00;;;14.35;;
53411;SDS011;39307;52.870;13.660;2024-03-02T13:44:30;15.32;;;13.73;;
53411;SDS011;39307;52.870;13.660;2024-03-02T13:46:58;15.80;;;14.20;;
53411;SDS011;39307;52.870;13.660;2024-03-02T13:49:27;15.63;;;14.02;;
53411;SDS011;39307;52.870;13.660;2024-03-02T13:51:53;15.67;;;14.07;;
53411;SDS011;39307;52.870;13.660;2024-03-02T13:54:20;15.55;;;14.05;;
53411;SDS011;39307;52.870;13.660;2024-03-02T13:56:47;15.18;;;13.57;;
53411;SDS011;39307;52.870;13.660;2024-03-02T13:59:14;15.02;;;13.52;;
53411;SDS011;39307;52.870;13.660;2024-03-02T14:01:41;14.88;;;13.38;;
53411;SDS011;39307;52.870;13.660;2024-03-02T14:04:08;15.02;;;13.52;;
53411;SDS011;39307;52.870;13.660;2024-03-02T14:06:35;15.25;;;13.75;;
53411;SDS011;39307;52.870;13.660;2024-03-02T14:09:01;15.55;;;13.95;;
53411;SDS011;39307;52.870;13.660;2024-03-02T14:11:28;15.07;;;13.57;;
53411;SDS011;39307;52.870;13.660;2024-03-02T14:13:55;15.82;;;14.23;;
53411;SDS011;39307;52.870;13.660;2024-03-02T14:16:22;15.07;;;13.57;;
53411;SDS011;39307;52.870;13.660;2024-03-02T14:18:49;14.73;;;13.23;;
53411;SDS011;39307;52.870;13.660;2024-03-02T14:21:15;14.90;;;13.32;;
53411;SDS011;39307;52.870;13.660;2024-03-02T14:23:42;14.18;;;12.70;;
53411;SDS011;39307;52.870;13.660;2024-03-02T14:26:09;14.60;;;13.10;;
53411;SDS011;39307;52.870;13.660;2024-03-02T14:28:35;15.25;;;13.65;;